TimeMDT,TemperatureF,Dew PointF,Humidity,Sea Level PressureIn,VisibilityMPH,Wind Direction,Wind SpeedMPH,Gust SpeedMPH,PrecipitationIn,Events,Conditions,WindDirDegrees,DateUTC
12:15 AM,-9999,-9999,N/A,-9999,10.0,North,-9999.0,-,N/A,,Clear,0,2012-09-07 06:15:00
12:35 AM,66.2,33.8,30,30.17,10.0,NNW,18.4,24.2,N/A,,Clear,340,2012-09-07 06:35:00
12:55 AM,66.2,33.8,30,30.19,10.0,NNW,18.4,28.8,N/A,,Clear,340,2012-09-07 06:55:00
1:15 AM,66.2,33.8,30,30.21,10.0,North,16.1,26.5,N/A,,Scattered Clouds,350,2012-09-07 07:15:00
1:35 AM,66.2,33.8,30,30.24,10.0,North,19.6,24.2,N/A,,Overcast,350,2012-09-07 07:35:00
1:55 AM,64.4,33.8,32,30.26,10.0,North,18.4,-,N/A,,Overcast,360,2012-09-07 07:55:00
2:15 AM,62.6,37.4,39,30.27,10.0,North,19.6,-,N/A,,Overcast,350,2012-09-07 08:15:00
2:35 AM,59.0,41.0,51,30.27,10.0,North,16.1,-,N/A,,Overcast,350,2012-09-07 08:35:00
3:15 AM,57.2,41.0,55,30.27,10.0,NW,6.9,-,N/A,,Overcast,310,2012-09-07 09:15:00
3:35 AM,57.2,41.0,55,30.28,10.0,WNW,3.5,-,N/A,,Overcast,300,2012-09-07 09:35:00
3:55 AM,59.0,39.2,48,30.27,10.0,NW,6.9,-,N/A,,Overcast,320,2012-09-07 09:55:00
4:15 AM,57.2,39.2,51,30.28,10.0,NNW,6.9,-,N/A,,Mostly Cloudy,330,2012-09-07 10:15:00
4:35 AM,57.2,39.2,51,30.28,10.0,NNW,6.9,-,N/A,,Mostly Cloudy,340,2012-09-07 10:35:00
4:55 AM,57.2,39.2,51,30.28,10.0,NNW,9.2,-,N/A,,Overcast,340,2012-09-07 10:55:00
5:15 AM,57.2,39.2,51,30.27,10.0,North,8.1,-,N/A,,Overcast,360,2012-09-07 11:15:00
5:35 AM,57.2,39.2,51,30.26,10.0,North,6.9,-,N/A,,Overcast,10,2012-09-07 11:35:00
5:55 AM,55.4,41.0,58,30.26,10.0,NNW,6.9,-,N/A,,Overcast,330,2012-09-07 11:55:00
6:15 AM,53.6,39.2,58,30.26,10.0,NNW,4.6,-,N/A,,Mostly Cloudy,340,2012-09-07 12:15:00
6:35 AM,53.6,39.2,58,30.27,10.0,North,6.9,-,N/A,,Scattered Clouds,350,2012-09-07 12:35:00
6:55 AM,53.6,41.0,62,30.28,10.0,North,4.6,-,N/A,,Scattered Clouds,360,2012-09-07 12:55:00
7:15 AM,55.4,41.0,58,30.28,10.0,NNE,4.6,-,N/A,,Mostly Cloudy,20,2012-09-07 13:15:00
7:35 AM,57.2,42.8,59,30.28,10.0,North,5.8,-,N/A,,Overcast,10,2012-09-07 13:35:00
7:55 AM,57.2,42.8,59,30.29,10.0,NNE,6.9,-,N/A,,Mostly Cloudy,20,2012-09-07 13:55:00
8:15 AM,57.2,42.8,59,30.28,10.0,NNE,6.9,-,N/A,,Mostly Cloudy,30,2012-09-07 14:15:00
8:35 AM,57.2,42.8,59,30.29,10.0,ENE,8.1,-,N/A,,Mostly Cloudy,70,2012-09-07 14:35:00
8:55 AM,57.2,42.8,59,30.31,10.0,NE,8.1,-,N/A,,Clear,50,2012-09-07 14:55:00
9:15 AM,59.0,42.8,55,30.32,10.0,ENE,8.1,-,N/A,,Scattered Clouds,60,2012-09-07 15:15:00
9:35 AM,59.0,42.8,55,30.33,10.0,East,9.2,-,N/A,,Scattered Clouds,80,2012-09-07 15:35:00
9:55 AM,59.0,42.8,55,30.34,10.0,ESE,5.8,-,N/A,,Mostly Cloudy,110,2012-09-07 15:55:00
10:15 AM,60.8,42.8,52,30.34,10.0,East,5.8,-,N/A,,Scattered Clouds,100,2012-09-07 16:15:00
10:35 AM,62.6,42.8,48,30.34,10.0,East,6.9,-,N/A,,Scattered Clouds,80,2012-09-07 16:35:00
10:55 AM,62.6,42.8,48,30.34,10.0,NE,3.5,-,N/A,,Mostly Cloudy,40,2012-09-07 16:55:00
11:15 AM,62.6,42.8,48,30.34,10.0,SSE,4.6,-,N/A,,Mostly Cloudy,160,2012-09-07 17:15:00
11:35 AM,62.6,42.8,48,30.35,10.0,NNE,5.8,-,N/A,,Scattered Clouds,30,2012-09-07 17:35:00
11:55 AM,64.4,42.8,45,30.34,10.0,North,4.6,-,N/A,,Scattered Clouds,360,2012-09-07 17:55:00
12:15 PM,66.2,42.8,43,30.33,10.0,Calm,Calm,-,N/A,,Mostly Cloudy,0,2012-09-07 18:15:00
12:35 PM,66.2,42.8,43,30.33,10.0,WNW,5.8,-,N/A,,Mostly Cloudy,300,2012-09-07 18:35:00
12:55 PM,66.2,42.8,43,30.33,10.0,NW,6.9,-,N/A,,Partly Cloudy,320,2012-09-07 18:55:00
1:15 PM,66.2,42.8,43,30.32,10.0,West,6.9,-,N/A,,Scattered Clouds,280,2012-09-07 19:15:00
1:35 PM,64.4,42.8,45,30.33,10.0,WSW,6.9,-,N/A,,Mostly Cloudy,250,2012-09-07 19:35:00
2:15 PM,66.2,42.8,43,30.33,10.0,WSW,5.8,-,N/A,,Scattered Clouds,240,2012-09-07 20:15:00
2:35 PM,68.0,42.8,40,30.32,10.0,WSW,9.2,-,N/A,,Scattered Clouds,240,2012-09-07 20:35:00
2:55 PM,68.0,42.8,40,30.32,10.0,South,11.5,-,N/A,,Partly Cloudy,180,2012-09-07 20:55:00
3:15 PM,69.8,44.6,40,30.31,10.0,South,8.1,-,N/A,,Partly Cloudy,190,2012-09-07 21:15:00
3:55 PM,69.8,42.8,38,30.31,10.0,SSW,6.9,-,N/A,,Clear,200,2012-09-07 21:55:00
4:15 PM,69.8,42.8,38,30.31,10.0,SSW,8.1,-,N/A,,Clear,200,2012-09-07 22:15:00
5:15 PM,71.6,42.8,35,30.31,10.0,East,13.8,20.7,N/A,,Overcast,80,2012-09-07 23:15:00
5:35 PM,66.2,46.4,49,30.32,10.0,ENE,12.7,24.2,N/A,,Scattered Clouds,60,2012-09-07 23:35:00
6:15 PM,66.2,46.4,49,30.34,10.0,East,12.7,-,N/A,,Clear,80,2012-09-08 00:15:00
6:35 PM,66.2,46.4,49,30.35,10.0,East,10.4,-,N/A,,Clear,80,2012-09-08 00:35:00
6:55 PM,64.4,44.6,49,30.35,10.0,East,8.1,-,N/A,,Clear,90,2012-09-08 00:55:00
7:15 PM,64.4,44.6,49,30.35,10.0,East,8.1,-,N/A,,Clear,100,2012-09-08 01:15:00
7:35 PM,62.6,44.6,52,30.36,10.0,SE,5.8,-,N/A,,Clear,140,2012-09-08 01:35:00
7:55 PM,60.8,42.8,52,30.36,10.0,SSE,6.9,-,N/A,,Clear,150,2012-09-08 01:55:00
8:15 PM,60.8,42.8,52,30.37,10.0,SSE,5.8,-,N/A,,Clear,150,2012-09-08 02:15:00
8:35 PM,57.2,42.8,59,30.38,10.0,South,6.9,-,N/A,,Clear,180,2012-09-08 02:35:00
8:55 PM,57.2,44.6,63,30.39,10.0,SSW,5.8,-,N/A,,Clear,200,2012-09-08 02:55:00
9:15 PM,59.0,44.6,59,30.39,10.0,SSW,5.8,-,N/A,,Clear,210,2012-09-08 03:15:00
9:35 PM,57.2,44.6,63,30.39,10.0,SW,5.8,-,N/A,,Clear,220,2012-09-08 03:35:00
9:55 PM,57.2,44.6,63,30.40,10.0,SW,5.8,-,N/A,,Clear,220,2012-09-08 03:55:00
10:35 PM,57.2,44.6,63,30.40,10.0,SW,6.9,-,N/A,,Clear,230,2012-09-08 04:35:00
10:55 PM,57.2,44.6,63,30.40,10.0,SW,4.6,-,N/A,,Clear,220,2012-09-08 04:55:00
11:15 PM,57.2,44.6,63,30.40,10.0,SW,5.8,-,N/A,,Clear,230,2012-09-08 05:15:00
11:35 PM,55.4,44.6,67,30.40,10.0,SW,5.8,-,N/A,,Clear,220,2012-09-08 05:35:00
11:55 PM,55.4,44.6,67,30.39,10.0,SSW,4.6,-,N/A,,Clear,210,2012-09-08 05:55:00